createdAt,value
2022-10-30T00:01:18.019Z,11.40
2022-10-30T00:03:44.788Z,11.40
2022-10-30T00:06:11.439Z,11.30
2022-10-30T00:08:38.067Z,11.30
2022-10-30T00:11:05.811Z,11.30
2022-10-30T00:13:32.380Z,11.20
2022-10-30T00:15:58.966Z,11.20
2022-10-30T00:18:25.650Z,11.20
2022-10-30T00:20:52.318Z,11.10
2022-10-30T00:23:20.327Z,11.10
2022-10-30T00:25:47.080Z,11.20
2022-10-30T00:28:13.658Z,11.10
2022-10-30T00:30:40.681Z,11.10
2022-10-30T00:33:07.373Z,11.10
2022-10-30T00:35:34.031Z,11.10
2022-10-30T00:38:01.680Z,11.00
2022-10-30T00:40:28.697Z,11.00
2022-10-30T00:42:55.433Z,11.00
2022-10-30T00:45:22.094Z,11.00
2022-10-30T00:47:51.691Z,10.90
2022-10-30T00:50:18.392Z,11.00
2022-10-30T00:53:07.321Z,11.00
2022-10-30T00:55:39.774Z,10.90
2022-10-30T00:58:08.471Z,10.90
2022-10-30T01:00:36.059Z,10.90
2022-10-30T01:03:02.836Z,10.90
2022-10-30T01:05:32.157Z,10.90
2022-10-30T01:07:59.043Z,10.80
2022-10-30T01:10:25.885Z,10.80
2022-10-30T01:12:53.667Z,10.80
2022-10-30T01:15:24.228Z,10.80
2022-10-30T01:17:53.931Z,10.70
2022-10-30T01:20:37.923Z,10.70
2022-10-30T01:23:05.091Z,10.60
2022-10-30T01:25:40.631Z,10.60
2022-10-30T01:28:07.200Z,10.60
2022-10-30T01:30:54.110Z,10.70
2022-10-30T01:33:37.357Z,10.60
2022-10-30T01:36:24.257Z,10.50
2022-10-30T01:38:53.257Z,10.50
2022-10-30T01:41:20.064Z,10.50
2022-10-30T01:43:48.410Z,10.50
2022-10-30T01:46:20.830Z,10.50
2022-10-30T01:48:59.060Z,10.50
2022-10-30T01:51:28.712Z,10.50
2022-10-30T01:54:03.705Z,10.40
2022-10-30T01:56:50.542Z,10.40
2022-10-30T01:59:21.421Z,10.40
2022-10-30T02:01:50.131Z,10.40
2022-10-30T02:04:17.003Z,10.40
2022-10-30T02:06:43.792Z,10.30
2022-10-30T02:09:10.415Z,10.30
2022-10-30T02:11:38.641Z,10.30
2022-10-30T02:14:06.775Z,10.30
2022-10-30T02:16:38.951Z,10.30
2022-10-30T02:19:07.685Z,10.30
2022-10-30T02:21:34.417Z,10.30
2022-10-30T02:24:01.088Z,10.30
2022-10-30T02:26:27.671Z,10.30
2022-10-30T02:28:54.267Z,10.20
2022-10-30T02:31:21.140Z,10.20
2022-10-30T02:33:48.156Z,10.20
2022-10-30T02:36:17.779Z,10.20
2022-10-30T02:38:44.543Z,10.20
2022-10-30T02:41:11.333Z,10.20
2022-10-30T02:43:38.002Z,10.30
2022-10-30T02:46:05.625Z,10.30
2022-10-30T02:48:32.946Z,10.30
2022-10-30T02:51:03.525Z,10.30
2022-10-30T02:53:31.067Z,10.20
2022-10-30T02:56:03.388Z,10.30
2022-10-30T02:58:29.998Z,10.20
2022-10-30T03:00:56.643Z,10.20
2022-10-30T03:03:24.262Z,10.30
2022-10-30T03:05:51.012Z,10.20
2022-10-30T03:08:17.614Z,10.20
2022-10-30T03:10:44.396Z,10.20
2022-10-30T03:13:11.031Z,10.20
2022-10-30T03:15:37.634Z,10.20
2022-10-30T03:18:04.298Z,10.20
2022-10-30T03:20:30.933Z,10.20
2022-10-30T03:22:57.588Z,10.20
2022-10-30T03:25:24.331Z,10.20
2022-10-30T03:27:50.989Z,10.10
2022-10-30T03:30:18.100Z,10.10
2022-10-30T03:32:44.766Z,10.10
2022-10-30T03:35:11.557Z,10.00
2022-10-30T03:37:38.201Z,10.10
2022-10-30T03:40:05.058Z,10.10
2022-10-30T03:42:31.678Z,10.10
2022-10-30T03:44:58.350Z,10.20
2022-10-30T03:47:24.978Z,10.20
2022-10-30T03:49:51.668Z,10.20
2022-10-30T03:52:18.398Z,10.20
2022-10-30T03:54:45.030Z,10.20
2022-10-30T03:57:11.694Z,10.20
2022-10-30T03:59:38.496Z,10.20
2022-10-30T04:02:05.443Z,10.30
2022-10-30T04:04:32.340Z,10.30
2022-10-30T04:06:59.072Z,10.40
2022-10-30T04:09:25.759Z,10.30
2022-10-30T04:11:52.418Z,10.30
2022-10-30T04:14:19.064Z,10.30
2022-10-30T04:16:45.848Z,10.20
2022-10-30T04:19:12.446Z,10.30
2022-10-30T04:21:39.024Z,10.10
2022-10-30T04:24:05.788Z,10.20
2022-10-30T04:26:32.426Z,10.20
2022-10-30T04:28:59.048Z,10.10
2022-10-30T04:31:26.023Z,10.10
2022-10-30T04:33:52.738Z,10.10
2022-10-30T04:36:19.457Z,10.10
2022-10-30T04:38:46.079Z,10.20
2022-10-30T04:41:12.704Z,10.20
2022-10-30T04:43:39.299Z,10.20
2022-10-30T04:46:06.089Z,10.10
2022-10-30T04:48:34.993Z,10.10
2022-10-30T04:51:01.642Z,10.10
2022-10-30T04:53:28.247Z,10.10
2022-10-30T04:55:55.180Z,10.20
2022-10-30T04:58:21.824Z,10.10
2022-10-30T05:00:48.462Z,10.10
2022-10-30T05:03:23.255Z,10.10
2022-10-30T05:05:58.997Z,10.00
2022-10-30T05:08:25.709Z,10.00
2022-10-30T05:10:52.646Z,10.00
2022-10-30T05:13:19.270Z,9.90
2022-10-30T05:15:45.936Z,10.00
2022-10-30T05:18:12.542Z,9.90
2022-10-30T05:20:39.262Z,9.80
2022-10-30T05:23:06.416Z,9.90
2022-10-30T05:25:33.058Z,9.80
2022-10-30T05:28:00.967Z,9.80
2022-10-30T05:30:31.726Z,9.80
2022-10-30T05:33:02.132Z,9.80
2022-10-30T05:35:29.340Z,9.80
2022-10-30T05:37:56.198Z,9.70
2022-10-30T05:40:22.810Z,9.70
2022-10-30T05:42:49.532Z,9.70
2022-10-30T05:45:16.721Z,9.70
2022-10-30T05:47:43.832Z,9.70
2022-10-30T05:50:11.524Z,9.70
2022-10-30T05:52:38.530Z,9.60
2022-10-30T05:55:05.337Z,9.70
2022-10-30T05:57:34.683Z,9.60
2022-10-30T06:00:01.315Z,9.70
2022-10-30T06:02:28.007Z,9.70
2022-10-30T06:04:54.682Z,9.70
2022-10-30T06:07:21.295Z,9.70
2022-10-30T06:09:47.953Z,9.70
2022-10-30T06:12:14.624Z,9.70
2022-10-30T06:14:41.243Z,9.80
2022-10-30T06:17:07.888Z,9.70
2022-10-30T06:19:34.539Z,9.80
2022-10-30T06:22:01.159Z,9.80
2022-10-30T06:24:27.799Z,9.90
2022-10-30T06:26:54.446Z,9.90
2022-10-30T06:29:21.100Z,10.10
2022-10-30T06:31:47.751Z,10.10
2022-10-30T06:34:14.400Z,10.10
2022-10-30T06:36:41.151Z,10.20
2022-10-30T06:39:07.884Z,10.20
2022-10-30T06:41:34.765Z,10.30
2022-10-30T06:44:01.446Z,10.40
2022-10-30T06:46:32.471Z,10.50
2022-10-30T06:49:00.405Z,10.80
2022-10-30T06:51:27.254Z,11.30
2022-10-30T06:53:53.895Z,12.00
2022-10-30T06:56:20.518Z,12.80
2022-10-30T06:58:47.184Z,14.00
2022-10-30T07:01:14.004Z,15.30
2022-10-30T07:03:40.626Z,16.50
2022-10-30T07:06:07.341Z,17.80
2022-10-30T07:08:33.979Z,18.90
2022-10-30T07:11:00.633Z,19.90
2022-10-30T07:13:27.250Z,20.80
2022-10-30T07:15:54.005Z,21.40
2022-10-30T07:18:20.692Z,22.20
2022-10-30T07:20:47.329Z,22.60
2022-10-30T07:23:13.999Z,22.70
2022-10-30T07:25:40.656Z,22.60
2022-10-30T07:28:07.316Z,22.40
2022-10-30T07:30:33.981Z,22.50
2022-10-30T07:33:02.617Z,23.20
2022-10-30T07:35:30.225Z,24.00
2022-10-30T07:38:02.079Z,25.10
2022-10-30T07:40:28.765Z,25.80
2022-10-30T07:42:57.059Z,25.90
2022-10-30T07:45:23.871Z,26.30
2022-10-30T07:47:50.503Z,26.60
2022-10-30T07:50:17.194Z,26.50
2022-10-30T07:52:44.244Z,27.00
2022-10-30T07:55:11.124Z,27.30
2022-10-30T07:57:38.946Z,27.80
2022-10-30T08:00:06.678Z,27.90
2022-10-30T08:02:33.479Z,28.40
2022-10-30T08:05:00.323Z,28.90
2022-10-30T08:07:33.961Z,29.10
2022-10-30T08:10:00.654Z,28.80
2022-10-30T08:12:27.548Z,28.90
2022-10-30T08:14:54.307Z,28.60
2022-10-30T08:17:21.589Z,28.40
2022-10-30T08:19:48.193Z,28.70
2022-10-30T08:22:14.834Z,28.90
2022-10-30T08:24:41.476Z,29.10
2022-10-30T08:27:08.139Z,29.40
2022-10-30T08:29:34.928Z,29.80
2022-10-30T08:32:01.766Z,29.90
2022-10-30T08:34:31.648Z,30.10
2022-10-30T08:36:58.423Z,30.20
2022-10-30T08:39:25.067Z,30.60
2022-10-30T08:41:51.645Z,30.20
2022-10-30T08:44:18.650Z,30.70
2022-10-30T08:46:45.248Z,30.90
2022-10-30T08:49:11.834Z,31.10
2022-10-30T08:51:38.487Z,31.70
2022-10-30T08:54:05.116Z,32.30
2022-10-30T08:56:31.760Z,32.00
2022-10-30T08:58:58.412Z,32.00
2022-10-30T09:01:25.199Z,32.30
2022-10-30T09:03:51.892Z,32.50
2022-10-30T09:06:18.458Z,32.20
2022-10-30T09:08:45.801Z,32.00
2022-10-30T09:11:12.554Z,32.50
2022-10-30T09:13:39.201Z,31.80
2022-10-30T09:16:06.071Z,32.10
2022-10-30T09:18:32.735Z,31.60
2022-10-30T09:21:03.128Z,30.90
2022-10-30T09:23:31.629Z,30.80
2022-10-30T09:25:58.393Z,30.60
2022-10-30T09:28:25.104Z,30.40
2022-10-30T09:30:56.391Z,30.50
2022-10-30T09:33:23.334Z,29.80
2022-10-30T09:35:50.030Z,30.00
2022-10-30T09:38:16.648Z,30.60
2022-10-30T09:40:46.139Z,31.00
2022-10-30T09:43:15.487Z,30.90
2022-10-30T09:45:43.931Z,30.90
2022-10-30T09:48:13.513Z,31.10
2022-10-30T09:50:40.106Z,31.00
2022-10-30T09:53:23.045Z,31.20
2022-10-30T09:56:15.874Z,31.30
2022-10-30T09:58:42.560Z,31.30
2022-10-30T10:01:21.207Z,31.40
2022-10-30T10:03:56.746Z,31.40
2022-10-30T10:06:24.612Z,31.30
2022-10-30T10:08:54.134Z,32.00
2022-10-30T10:11:25.958Z,31.90
2022-10-30T10:13:52.595Z,32.10
2022-10-30T10:16:20.551Z,33.10
2022-10-30T10:18:48.897Z,33.40
2022-10-30T10:21:24.036Z,33.80
2022-10-30T10:23:52.422Z,34.30
2022-10-30T10:26:42.847Z,34.60
2022-10-30T10:29:25.519Z,34.60
2022-10-30T10:31:58.092Z,34.20
2022-10-30T10:34:33.401Z,33.90
2022-10-30T10:37:08.893Z,33.10
2022-10-30T10:39:54.072Z,33.20
2022-10-30T10:42:36.653Z,33.50
2022-10-30T10:45:03.251Z,33.10
2022-10-30T10:47:32.915Z,32.90
2022-10-30T10:50:05.811Z,32.60
2022-10-30T10:52:40.709Z,32.70
2022-10-30T10:55:13.023Z,32.90
2022-10-30T10:57:41.100Z,32.80
2022-10-30T11:00:16.213Z,33.60
2022-10-30T11:02:48.889Z,33.90
2022-10-30T11:05:24.547Z,33.70
2022-10-30T11:07:51.343Z,33.60
2022-10-30T11:10:19.333Z,33.30
2022-10-30T11:12:46.052Z,33.00
2022-10-30T11:15:31.580Z,33.00
2022-10-30T11:18:08.233Z,32.90
2022-10-30T11:20:34.820Z,32.50
2022-10-30T11:23:01.718Z,32.70
2022-10-30T11:25:33.918Z,32.70
2022-10-30T11:28:02.241Z,32.70
2022-10-30T11:30:29.000Z,33.00
2022-10-30T11:32:57.230Z,33.00
2022-10-30T11:35:24.697Z,32.80
2022-10-30T11:37:52.784Z,33.00
2022-10-30T11:40:21.046Z,33.00
2022-10-30T11:42:49.638Z,32.70
2022-10-30T11:45:18.630Z,32.30
2022-10-30T11:47:46.541Z,31.70
2022-10-30T11:50:19.064Z,31.60
2022-10-30T11:52:46.360Z,31.30
2022-10-30T11:55:36.285Z,30.80
2022-10-30T11:58:04.300Z,30.30
2022-10-30T12:00:32.552Z,29.60
2022-10-30T12:03:03.579Z,29.00
2022-10-30T12:05:35.140Z,28.20
2022-10-30T12:08:07.559Z,27.50
2022-10-30T12:10:54.436Z,27.30
2022-10-30T12:13:21.858Z,27.10
2022-10-30T12:16:03.299Z,27.10
2022-10-30T12:18:30.140Z,26.90
2022-10-30T12:20:57.685Z,26.80
2022-10-30T12:23:25.909Z,26.80
2022-10-30T12:25:53.767Z,26.60
2022-10-30T12:28:20.411Z,26.50
2022-10-30T12:31:07.263Z,26.40
2022-10-30T12:33:33.823Z,26.40
2022-10-30T12:36:01.389Z,26.30
2022-10-30T12:38:35.309Z,26.20
2022-10-30T12:41:13.851Z,26.10
2022-10-30T12:43:42.426Z,26.00
2022-10-30T12:46:12.095Z,25.90
2022-10-30T12:48:43.768Z,25.80
2022-10-30T12:51:24.252Z,25.70
2022-10-30T12:53:50.927Z,25.70
2022-10-30T12:56:26.896Z,25.80
2022-10-30T12:59:12.323Z,25.80
2022-10-30T13:01:44.920Z,25.90
2022-10-30T13:04:23.126Z,26.00
2022-10-30T13:06:53.202Z,26.00
2022-10-30T13:09:38.223Z,26.00
2022-10-30T13:12:15.409Z,26.10
2022-10-30T13:14:52.267Z,26.10
2022-10-30T13:17:18.906Z,26.10
2022-10-30T13:19:46.208Z,26.00
2022-10-30T13:22:15.593Z,26.00
2022-10-30T13:24:42.673Z,26.00
2022-10-30T13:27:25.030Z,25.90
2022-10-30T13:30:01.463Z,25.90
2022-10-30T13:32:28.076Z,25.80
2022-10-30T13:35:15.764Z,25.80
2022-10-30T13:37:45.140Z,25.70
2022-10-30T13:40:17.347Z,25.60
2022-10-30T13:42:55.856Z,25.40
2022-10-30T13:45:41.058Z,25.20
2022-10-30T13:48:07.624Z,25.00
2022-10-30T13:50:43.354Z,24.80
2022-10-30T13:53:14.400Z,24.60
2022-10-30T13:55:41.962Z,24.50
2022-10-30T13:58:17.828Z,24.40
2022-10-30T14:00:44.393Z,24.40
2022-10-30T14:03:13.928Z,24.40
2022-10-30T14:05:40.486Z,24.40
2022-10-30T14:08:07.146Z,24.40
2022-10-30T14:10:48.140Z,24.30
2022-10-30T14:13:14.971Z,24.30
2022-10-30T14:15:42.925Z,24.20
2022-10-30T14:18:12.344Z,24.10
2022-10-30T14:20:49.409Z,24.00
2022-10-30T14:23:23.783Z,23.90
2022-10-30T14:26:02.708Z,23.90
2022-10-30T14:28:36.528Z,23.80
2022-10-30T14:31:07.812Z,23.60
2022-10-30T14:33:40.513Z,23.50
2022-10-30T14:36:14.936Z,23.40
2022-10-30T14:38:41.614Z,23.20
2022-10-30T14:41:15.656Z,23.00
2022-10-30T14:43:50.648Z,23.00
2022-10-30T14:46:22.896Z,22.80
2022-10-30T14:48:57.956Z,22.60
2022-10-30T14:51:24.573Z,22.40
2022-10-30T14:54:15.576Z,22.20
2022-10-30T14:56:48.647Z,22.00
2022-10-30T14:59:15.265Z,21.80
2022-10-30T15:01:44.833Z,21.60
2022-10-30T15:04:17.540Z,21.40
2022-10-30T15:06:59.201Z,21.40
2022-10-30T15:09:40.335Z,21.20
2022-10-30T15:12:22.912Z,21.10
2022-10-30T15:14:56.904Z,20.90
2022-10-30T15:17:52.867Z,20.70
2022-10-30T15:20:21.542Z,20.50
2022-10-30T15:22:49.477Z,20.30
2022-10-30T15:25:17.882Z,20.10
2022-10-30T15:27:46.109Z,20.00
2022-10-30T15:30:16.168Z,19.90
2022-10-30T15:32:42.741Z,19.70
2022-10-30T15:35:15.299Z,19.50
2022-10-30T15:37:55.897Z,19.30
2022-10-30T15:40:22.625Z,19.20
2022-10-30T15:42:50.461Z,19.00
2022-10-30T15:45:21.783Z,18.80
2022-10-30T15:47:50.324Z,18.60
2022-10-30T15:50:17.450Z,18.50
2022-10-30T15:52:44.044Z,18.40
2022-10-30T15:55:14.947Z,18.20
2022-10-30T15:58:02.826Z,18.00
2022-10-30T16:00:31.761Z,17.80
2022-10-30T16:03:06.137Z,17.70
2022-10-30T16:05:33.462Z,17.60
2022-10-30T16:08:02.273Z,17.40
2022-10-30T16:10:38.307Z,17.30
2022-10-30T16:13:04.942Z,17.20
2022-10-30T16:15:33.798Z,17.10
2022-10-30T16:18:08.536Z,17.00
2022-10-30T16:20:36.129Z,16.90
2022-10-30T16:23:04.185Z,16.80
2022-10-30T16:25:32.678Z,16.70
2022-10-30T16:27:59.813Z,16.60
2022-10-30T16:30:29.474Z,16.50
2022-10-30T16:32:56.246Z,16.40
2022-10-30T16:35:23.755Z,16.40
2022-10-30T16:37:53.146Z,16.30
2022-10-30T16:40:22.646Z,16.10
2022-10-30T16:42:52.658Z,16.10
2022-10-30T16:45:19.496Z,16.00
2022-10-30T16:47:47.444Z,15.80
2022-10-30T16:50:15.565Z,15.70
2022-10-30T16:52:42.746Z,15.60
2022-10-30T16:55:09.622Z,15.50
2022-10-30T16:57:38.293Z,15.50
2022-10-30T17:00:05.569Z,15.30
2022-10-30T17:02:34.574Z,15.30
2022-10-30T17:05:10.053Z,15.20
2022-10-30T17:07:37.543Z,15.10
2022-10-30T17:10:24.143Z,15.00
2022-10-30T17:12:50.704Z,15.00
2022-10-30T17:15:21.784Z,14.90
2022-10-30T17:18:08.310Z,14.80
2022-10-30T17:20:35.027Z,14.70
2022-10-30T17:23:16.402Z,14.60
2022-10-30T17:25:43.307Z,14.50
2022-10-30T17:28:29.605Z,14.50
2022-10-30T17:30:56.694Z,14.50
2022-10-30T17:33:23.324Z,14.40
2022-10-30T17:35:50.286Z,14.40
2022-10-30T17:38:16.998Z,14.30
2022-10-30T17:40:43.656Z,14.20
2022-10-30T17:43:16.651Z,14.10
2022-10-30T17:45:43.878Z,14.10
2022-10-30T17:48:12.534Z,14.00
2022-10-30T17:50:39.159Z,14.00
2022-10-30T17:53:05.787Z,13.90
2022-10-30T17:55:33.930Z,13.80
2022-10-30T17:58:00.559Z,13.70
2022-10-30T18:00:27.151Z,13.70
2022-10-30T18:02:53.791Z,13.60
2022-10-30T18:05:21.731Z,13.50
2022-10-30T18:10:19.938Z,13.40
2022-10-30T18:12:46.566Z,13.30
2022-10-30T18:15:32.253Z,13.30
2022-10-30T18:17:58.928Z,13.30
2022-10-30T18:20:26.200Z,13.20
2022-10-30T18:22:53.770Z,13.10
2022-10-30T18:25:22.721Z,13.00
2022-10-30T18:27:49.429Z,13.00
2022-10-30T18:30:16.215Z,13.00
2022-10-30T18:32:42.922Z,12.90
2022-10-30T18:35:12.560Z,12.80
2022-10-30T18:37:39.250Z,12.80
2022-10-30T18:40:06.141Z,12.70
2022-10-30T18:42:32.768Z,12.60
2022-10-30T18:44:59.347Z,12.60
2022-10-30T18:47:25.984Z,12.50
2022-10-30T18:49:52.576Z,12.50
2022-10-30T18:52:19.205Z,12.40
2022-10-30T18:54:45.798Z,12.40
2022-10-30T18:57:12.358Z,12.30
2022-10-30T18:59:38.997Z,12.30
2022-10-30T19:02:16.109Z,12.20
2022-10-30T19:04:42.807Z,12.20
2022-10-30T19:07:09.412Z,12.10
2022-10-30T19:09:36.173Z,12.00
2022-10-30T19:12:02.903Z,12.10
2022-10-30T19:14:29.538Z,12.10
2022-10-30T19:16:56.144Z,12.00
2022-10-30T19:19:22.784Z,12.00
2022-10-30T19:21:49.795Z,12.00
2022-10-30T19:24:17.803Z,11.90
2022-10-30T19:26:44.483Z,11.90
2022-10-30T19:29:11.090Z,11.90
2022-10-30T19:31:37.787Z,11.90
2022-10-30T19:34:04.400Z,11.80
2022-10-30T19:36:31.044Z,11.80
2022-10-30T19:38:57.818Z,11.80
2022-10-30T19:41:24.867Z,11.80
2022-10-30T19:43:52.334Z,11.70
2022-10-30T19:46:19.244Z,11.60
2022-10-30T19:49:01.093Z,11.60
2022-10-30T19:51:28.134Z,11.60
2022-10-30T19:53:54.855Z,11.50
2022-10-30T19:56:21.793Z,11.50
2022-10-30T19:58:48.543Z,11.50
2022-10-30T20:01:15.626Z,11.50
2022-10-30T20:03:42.460Z,11.40
2022-10-30T20:06:10.785Z,11.40
2022-10-30T20:08:37.378Z,11.30
2022-10-30T20:11:04.080Z,11.30
2022-10-30T20:13:32.900Z,11.30
2022-10-30T20:16:00.464Z,11.30
2022-10-30T20:18:31.474Z,11.20
2022-10-30T20:21:02.318Z,11.20
2022-10-30T20:23:29.072Z,11.10
2022-10-30T20:26:00.544Z,11.10
2022-10-30T20:28:31.511Z,11.10
2022-10-30T20:30:58.372Z,11.00
2022-10-30T20:33:25.738Z,11.00
2022-10-30T20:35:54.642Z,10.90
2022-10-30T20:38:22.639Z,10.80
2022-10-30T20:40:49.331Z,10.80
2022-10-30T20:43:17.771Z,10.80
2022-10-30T20:45:44.465Z,10.70
2022-10-30T20:48:12.322Z,10.70
2022-10-30T20:50:39.605Z,10.70
2022-10-30T20:53:06.853Z,10.70
2022-10-30T20:55:35.128Z,10.50
2022-10-30T20:58:02.370Z,10.40
2022-10-30T21:00:29.381Z,10.40
2022-10-30T21:02:56.071Z,10.40
2022-10-30T21:05:42.662Z,10.40
2022-10-30T21:08:09.459Z,10.30
2022-10-30T21:10:39.467Z,10.30
2022-10-30T21:13:08.970Z,10.30
2022-10-30T21:15:44.421Z,10.30
2022-10-30T21:18:12.646Z,10.40
2022-10-30T21:20:40.923Z,10.30
2022-10-30T21:23:07.693Z,10.30
2022-10-30T21:25:34.464Z,10.30
2022-10-30T21:28:01.495Z,10.30
2022-10-30T21:30:28.193Z,10.20
2022-10-30T21:32:54.876Z,10.20
2022-10-30T21:35:21.525Z,10.20
2022-10-30T21:37:48.199Z,10.20
2022-10-30T21:40:15.004Z,10.20
2022-10-30T21:42:41.654Z,10.10
2022-10-30T21:45:08.730Z,10.00
2022-10-30T21:47:35.348Z,10.00
2022-10-30T21:50:05.981Z,10.00
2022-10-30T21:52:34.632Z,10.00
2022-10-30T21:55:01.288Z,10.00
2022-10-30T21:57:28.523Z,10.00
2022-10-30T21:59:56.072Z,10.00
2022-10-30T22:02:24.126Z,10.00
2022-10-30T22:04:50.771Z,9.90
2022-10-30T22:07:18.071Z,9.90
2022-10-30T22:09:44.684Z,10.00
2022-10-30T22:12:11.327Z,9.90
2022-10-30T22:14:37.940Z,9.90
2022-10-30T22:17:04.547Z,9.80
2022-10-30T22:19:31.183Z,9.80
2022-10-30T22:21:57.897Z,9.80
2022-10-30T22:24:24.473Z,9.70
2022-10-30T22:26:51.099Z,9.70
2022-10-30T22:29:17.803Z,9.70
2022-10-30T22:31:44.484Z,9.70
2022-10-30T22:34:11.093Z,9.70
2022-10-30T22:36:37.678Z,9.60
2022-10-30T22:39:06.176Z,9.60
2022-10-30T22:41:37.272Z,9.50
2022-10-30T22:44:05.086Z,9.50
2022-10-30T22:46:31.763Z,9.50
2022-10-30T22:48:58.672Z,9.50
2022-10-30T22:51:25.616Z,9.50
2022-10-30T22:53:56.822Z,9.50
2022-10-30T22:56:25.374Z,9.50
2022-10-30T22:58:52.363Z,9.50
2022-10-30T23:01:20.753Z,9.40
2022-10-30T23:03:47.480Z,9.40
2022-10-30T23:06:14.230Z,9.40
2022-10-30T23:08:41.147Z,9.40
2022-10-30T23:11:07.853Z,9.30
2022-10-30T23:13:35.080Z,9.30
2022-10-30T23:16:02.528Z,9.30
2022-10-30T23:18:29.185Z,9.30
2022-10-30T23:21:03.730Z,9.30
2022-10-30T23:23:30.570Z,9.30
2022-10-30T23:26:01.657Z,9.20
2022-10-30T23:28:28.260Z,9.20
2022-10-30T23:30:54.990Z,9.20
2022-10-30T23:33:21.596Z,9.20
2022-10-30T23:35:48.231Z,9.10
2022-10-30T23:38:14.933Z,9.10
2022-10-30T23:40:41.597Z,9.00
2022-10-30T23:43:08.260Z,9.00
2022-10-30T23:45:35.559Z,8.90
2022-10-30T23:48:02.472Z,8.90
2022-10-30T23:50:29.340Z,8.90
2022-10-30T23:52:55.914Z,8.90
2022-10-30T23:55:22.527Z,8.90
2022-10-30T23:57:49.190Z,8.90
